sensor_id;sensor_type;location;lat;lon;timestamp;P1;durP1;ratioP1;P2;durP2;ratioP2
46084;SDS011;31823;47.032;8.310;2023-03-01T00:01:23;48.92;;;28.13;;
46084;SDS011;31823;47.032;8.310;2023-03-01T00:03:51;45.22;;;26.38;;
46084;SDS011;31823;47.032;8.310;2023-03-01T00:06:17;44.58;;;26.00;;
46084;SDS011;31823;47.032;8.310;2023-03-01T00:08:43;44.85;;;26.02;;
46084;SDS011;31823;47.032;8.310;2023-03-01T00:13:43;44.78;;;26.55;;
46084;SDS011;31823;47.032;8.310;2023-03-01T00:16:12;45.38;;;27.25;;
46084;SDS011;31823;47.032;8.310;2023-03-01T00:18:39;43.97;;;26.00;;
46084;SDS011;31823;47.032;8.310;2023-03-01T00:21:05;49.50;;;27.13;;
46084;SDS011;31823;47.032;8.310;2023-03-01T00:23:31;48.45;;;27.25;;
46084;SDS011;31823;47.032;8.310;2023-03-01T00:25:59;44.20;;;26.35;;
46084;SDS011;31823;47.032;8.310;2023-03-01T00:28:24;49.35;;;27.90;;
46084;SDS011;31823;47.032;8.310;2023-03-01T00:30:50;52.72;;;28.90;;
46084;SDS011;31823;47.032;8.310;2023-03-01T00:33:15;44.28;;;26.35;;
46084;SDS011;31823;47.032;8.310;2023-03-01T00:35:41;46.15;;;27.45;;
46084;SDS011;31823;47.032;8.310;2023-03-01T00:38:07;46.67;;;27.10;;
46084;SDS011;31823;47.032;8.310;2023-03-01T00:40:34;52.08;;;27.60;;
46084;SDS011;31823;47.032;8.310;2023-03-01T00:43:00;44.28;;;26.33;;
46084;SDS011;31823;47.032;8.310;2023-03-01T00:45:26;50.30;;;27.67;;
46084;SDS011;31823;47.032;8.310;2023-03-01T00:47:52;44.38;;;26.77;;
46084;SDS011;31823;47.032;8.310;2023-03-01T00:50:18;50.00;;;27.98;;
46084;SDS011;31823;47.032;8.310;2023-03-01T00:52:45;46.95;;;26.27;;
46084;SDS011;31823;47.032;8.310;2023-03-01T00:55:10;49.40;;;28.40;;
46084;SDS011;31823;47.032;8.310;2023-03-01T00:57:36;43.72;;;26.42;;
46084;SDS011;31823;47.032;8.310;2023-03-01T01:00:02;44.10;;;26.15;;
46084;SDS011;31823;47.032;8.310;2023-03-01T01:02:29;47.83;;;27.30;;
46084;SDS011;31823;47.032;8.310;2023-03-01T01:04:57;48.05;;;27.25;;
46084;SDS011;31823;47.032;8.310;2023-03-01T01:07:22;44.08;;;27.40;;
46084;SDS011;31823;47.032;8.310;2023-03-01T01:09:48;43.80;;;26.13;;
46084;SDS011;31823;47.032;8.310;2023-03-01T01:12:13;44.33;;;26.70;;
46084;SDS011;31823;47.032;8.310;2023-03-01T01:14:39;43.65;;;25.48;;
46084;SDS011;31823;47.032;8.310;2023-03-01T01:17:04;46.67;;;28.45;;
46084;SDS011;31823;47.032;8.310;2023-03-01T01:19:30;44.70;;;26.17;;
46084;SDS011;31823;47.032;8.310;2023-03-01T01:21:56;45.58;;;25.98;;
46084;SDS011;31823;47.032;8.310;2023-03-01T01:24:22;50.58;;;27.92;;
46084;SDS011;31823;47.032;8.310;2023-03-01T01:26:47;48.08;;;27.20;;
46084;SDS011;31823;47.032;8.310;2023-03-01T01:29:13;47.00;;;27.77;;
46084;SDS011;31823;47.032;8.310;2023-03-01T01:31:40;46.47;;;27.05;;
46084;SDS011;31823;47.032;8.310;2023-03-01T01:34:07;47.75;;;27.55;;
46084;SDS011;31823;47.032;8.310;2023-03-01T01:36:37;48.58;;;27.85;;
46084;SDS011;31823;47.032;8.310;2023-03-01T01:39:02;51.10;;;27.52;;
46084;SDS011;31823;47.032;8.310;2023-03-01T01:41:28;51.10;;;27.60;;
46084;SDS011;31823;47.032;8.310;2023-03-01T01:46:53;44.47;;;25.42;;
46084;SDS011;31823;47.032;8.310;2023-03-01T01:49:37;50.10;;;27.38;;
46084;SDS011;31823;47.032;8.310;2023-03-01T01:52:13;47.22;;;26.90;;
46084;SDS011;31823;47.032;8.310;2023-03-01T01:57:38;53.03;;;29.15;;
46084;SDS011;31823;47.032;8.310;2023-03-01T02:00:12;49.97;;;28.52;;
46084;SDS011;31823;47.032;8.310;2023-03-01T02:02:40;50.47;;;27.65;;
46084;SDS011;31823;47.032;8.310;2023-03-01T02:05:19;45.60;;;26.98;;
46084;SDS011;31823;47.032;8.310;2023-03-01T02:08:01;49.78;;;27.77;;
46084;SDS011;31823;47.032;8.310;2023-03-01T02:10:26;47.88;;;27.42;;
46084;SDS011;31823;47.032;8.310;2023-03-01T02:12:54;49.85;;;28.35;;
46084;SDS011;31823;47.032;8.310;2023-03-01T02:15:21;50.10;;;28.60;;
46084;SDS011;31823;47.032;8.310;2023-03-01T02:17:47;55.40;;;28.65;;
46084;SDS011;31823;47.032;8.310;2023-03-01T02:20:25;48.40;;;29.20;;
46084;SDS011;31823;47.032;8.310;2023-03-01T02:22:58;51.70;;;28.60;;
46084;SDS011;31823;47.032;8.310;2023-03-01T02:30:45;53.33;;;29.40;;
46084;SDS011;31823;47.032;8.310;2023-03-01T02:33:32;51.00;;;29.63;;
46084;SDS011;31823;47.032;8.310;2023-03-01T02:36:01;48.25;;;29.33;;
46084;SDS011;31823;47.032;8.310;2023-03-01T02:38:34;51.47;;;29.52;;
46084;SDS011;31823;47.032;8.310;2023-03-01T02:41:00;54.83;;;30.33;;
46084;SDS011;31823;47.032;8.310;2023-03-01T02:43:29;55.95;;;31.70;;
46084;SDS011;31823;47.032;8.310;2023-03-01T02:46:02;54.13;;;31.10;;
46084;SDS011;31823;47.032;8.310;2023-03-01T02:48:39;50.35;;;29.80;;
46084;SDS011;31823;47.032;8.310;2023-03-01T02:51:11;56.10;;;29.88;;
46084;SDS011;31823;47.032;8.310;2023-03-01T02:56:17;55.03;;;29.95;;
46084;SDS011;31823;47.032;8.310;2023-03-01T02:58:43;49.67;;;29.40;;
46084;SDS011;31823;47.032;8.310;2023-03-01T03:01:16;54.10;;;30.30;;
46084;SDS011;31823;47.032;8.310;2023-03-01T03:03:43;48.97;;;28.90;;
46084;SDS011;31823;47.032;8.310;2023-03-01T03:06:08;51.30;;;29.08;;
46084;SDS011;31823;47.032;8.310;2023-03-01T03:08:34;51.25;;;29.38;;
46084;SDS011;31823;47.032;8.310;2023-03-01T03:11:00;50.13;;;29.00;;
46084;SDS011;31823;47.032;8.310;2023-03-01T03:13:26;46.78;;;29.20;;
46084;SDS011;31823;47.032;8.310;2023-03-01T03:15:53;49.17;;;27.02;;
46084;SDS011;31823;47.032;8.310;2023-03-01T03:18:20;56.10;;;29.98;;
46084;SDS011;31823;47.032;8.310;2023-03-01T03:20:46;50.28;;;28.65;;
46084;SDS011;31823;47.032;8.310;2023-03-01T03:23:12;51.97;;;28.67;;
46084;SDS011;31823;47.032;8.310;2023-03-01T03:25:38;58.85;;;30.63;;
46084;SDS011;31823;47.032;8.310;2023-03-01T03:28:04;51.05;;;28.63;;
46084;SDS011;31823;47.032;8.310;2023-03-01T03:30:35;54.72;;;29.17;;
46084;SDS011;31823;47.032;8.310;2023-03-01T03:33:04;49.30;;;29.13;;
46084;SDS011;31823;47.032;8.310;2023-03-01T03:35:31;52.50;;;29.98;;
46084;SDS011;31823;47.032;8.310;2023-03-01T03:38:00;53.80;;;31.10;;
46084;SDS011;31823;47.032;8.310;2023-03-01T03:40:35;50.85;;;29.50;;
46084;SDS011;31823;47.032;8.310;2023-03-01T03:43:07;52.15;;;29.05;;
46084;SDS011;31823;47.032;8.310;2023-03-01T03:45:38;52.10;;;28.80;;
46084;SDS011;31823;47.032;8.310;2023-03-01T03:48:05;51.53;;;30.45;;
46084;SDS011;31823;47.032;8.310;2023-03-01T03:50:32;56.00;;;31.15;;
46084;SDS011;31823;47.032;8.310;2023-03-01T03:52:59;50.58;;;30.50;;
46084;SDS011;31823;47.032;8.310;2023-03-01T03:55:26;56.05;;;30.73;;
46084;SDS011;31823;47.032;8.310;2023-03-01T03:57:55;52.95;;;30.88;;
46084;SDS011;31823;47.032;8.310;2023-03-01T04:00:23;56.58;;;31.92;;
46084;SDS011;31823;47.032;8.310;2023-03-01T04:02:49;50.45;;;29.40;;
46084;SDS011;31823;47.032;8.310;2023-03-01T04:05:16;54.55;;;29.73;;
46084;SDS011;31823;47.032;8.310;2023-03-01T04:07:43;53.25;;;31.27;;
46084;SDS011;31823;47.032;8.310;2023-03-01T04:10:11;56.67;;;30.85;;
46084;SDS011;31823;47.032;8.310;2023-03-01T04:12:39;53.75;;;30.92;;
46084;SDS011;31823;47.032;8.310;2023-03-01T04:15:05;54.35;;;30.95;;
46084;SDS011;31823;47.032;8.310;2023-03-01T04:17:41;57.55;;;32.85;;
46084;SDS011;31823;47.032;8.310;2023-03-01T04:20:09;54.00;;;30.25;;
46084;SDS011;31823;47.032;8.310;2023-03-01T04:22:42;57.10;;;31.30;;
46084;SDS011;31823;47.032;8.310;2023-03-01T04:25:08;53.33;;;30.13;;
46084;SDS011;31823;47.032;8.310;2023-03-01T04:27:34;55.78;;;32.15;;
46084;SDS011;31823;47.032;8.310;2023-03-01T04:30:01;55.75;;;30.85;;
46084;SDS011;31823;47.032;8.310;2023-03-01T04:32:28;56.95;;;30.98;;
46084;SDS011;31823;47.032;8.310;2023-03-01T04:34:54;53.65;;;30.75;;
46084;SDS011;31823;47.032;8.310;2023-03-01T04:37:19;58.92;;;33.20;;
46084;SDS011;31823;47.032;8.310;2023-03-01T04:39:45;56.03;;;31.52;;
46084;SDS011;31823;47.032;8.310;2023-03-01T04:42:12;53.45;;;30.17;;
46084;SDS011;31823;47.032;8.310;2023-03-01T04:44:38;56.90;;;31.30;;
46084;SDS011;31823;47.032;8.310;2023-03-01T04:47:04;56.60;;;31.75;;
46084;SDS011;31823;47.032;8.310;2023-03-01T04:49:30;56.38;;;31.23;;
46084;SDS011;31823;47.032;8.310;2023-03-01T04:51:56;53.20;;;30.70;;
46084;SDS011;31823;47.032;8.310;2023-03-01T04:54:27;56.92;;;31.48;;
46084;SDS011;31823;47.032;8.310;2023-03-01T04:56:53;56.95;;;31.83;;
46084;SDS011;31823;47.032;8.310;2023-03-01T04:59:19;59.58;;;32.08;;
46084;SDS011;31823;47.032;8.310;2023-03-01T05:01:47;51.53;;;29.67;;
46084;SDS011;31823;47.032;8.310;2023-03-01T05:04:16;59.65;;;32.10;;
46084;SDS011;31823;47.032;8.310;2023-03-01T05:06:42;63.67;;;31.70;;
46084;SDS011;31823;47.032;8.310;2023-03-01T05:09:08;56.63;;;31.77;;
46084;SDS011;31823;47.032;8.310;2023-03-01T05:11:33;54.15;;;32.20;;
46084;SDS011;31823;47.032;8.310;2023-03-01T05:14:04;58.00;;;32.28;;
46084;SDS011;31823;47.032;8.310;2023-03-01T05:16:31;56.50;;;32.22;;
46084;SDS011;31823;47.032;8.310;2023-03-01T05:18:57;59.85;;;32.22;;
46084;SDS011;31823;47.032;8.310;2023-03-01T05:21:23;57.60;;;31.75;;
46084;SDS011;31823;47.032;8.310;2023-03-01T05:23:49;58.42;;;31.75;;
46084;SDS011;31823;47.032;8.310;2023-03-01T05:26:15;57.33;;;31.25;;
46084;SDS011;31823;47.032;8.310;2023-03-01T05:28:42;56.60;;;31.95;;
46084;SDS011;31823;47.032;8.310;2023-03-01T05:31:08;61.78;;;32.85;;
46084;SDS011;31823;47.032;8.310;2023-03-01T05:33:37;60.90;;;32.10;;
46084;SDS011;31823;47.032;8.310;2023-03-01T05:36:05;57.33;;;31.83;;
46084;SDS011;31823;47.032;8.310;2023-03-01T05:38:32;53.05;;;29.33;;
46084;SDS011;31823;47.032;8.310;2023-03-01T05:40:57;60.40;;;33.22;;
46084;SDS011;31823;47.032;8.310;2023-03-01T05:43:23;63.17;;;33.25;;
46084;SDS011;31823;47.032;8.310;2023-03-01T05:45:49;59.47;;;31.80;;
46084;SDS011;31823;47.032;8.310;2023-03-01T05:48:14;60.00;;;32.40;;
46084;SDS011;31823;47.032;8.310;2023-03-01T05:50:41;61.85;;;31.90;;
46084;SDS011;31823;47.032;8.310;2023-03-01T05:53:15;60.45;;;31.73;;
46084;SDS011;31823;47.032;8.310;2023-03-01T05:55:42;60.05;;;32.13;;
46084;SDS011;31823;47.032;8.310;2023-03-01T05:58:10;57.35;;;30.48;;
46084;SDS011;31823;47.032;8.310;2023-03-01T06:00:39;55.63;;;30.95;;
46084;SDS011;31823;47.032;8.310;2023-03-01T06:03:05;57.10;;;30.17;;
46084;SDS011;31823;47.032;8.310;2023-03-01T06:05:31;59.55;;;32.67;;
46084;SDS011;31823;47.032;8.310;2023-03-01T06:08:00;60.88;;;30.65;;
46084;SDS011;31823;47.032;8.310;2023-03-01T06:10:26;60.80;;;30.70;;
46084;SDS011;31823;47.032;8.310;2023-03-01T06:12:51;61.58;;;33.10;;
46084;SDS011;31823;47.032;8.310;2023-03-01T06:15:18;58.55;;;32.35;;
46084;SDS011;31823;47.032;8.310;2023-03-01T06:17:44;56.92;;;30.90;;
46084;SDS011;31823;47.032;8.310;2023-03-01T06:20:12;63.55;;;34.38;;
46084;SDS011;31823;47.032;8.310;2023-03-01T06:22:40;54.97;;;30.80;;
46084;SDS011;31823;47.032;8.310;2023-03-01T06:25:07;61.20;;;31.17;;
46084;SDS011;31823;47.032;8.310;2023-03-01T06:27:33;61.00;;;32.35;;
46084;SDS011;31823;47.032;8.310;2023-03-01T06:29:59;58.45;;;32.03;;
46084;SDS011;31823;47.032;8.310;2023-03-01T06:32:24;53.55;;;29.83;;
46084;SDS011;31823;47.032;8.310;2023-03-01T06:34:50;60.25;;;31.83;;
46084;SDS011;31823;47.032;8.310;2023-03-01T06:37:16;58.55;;;32.47;;
46084;SDS011;31823;47.032;8.310;2023-03-01T06:39:42;58.95;;;31.13;;
46084;SDS011;31823;47.032;8.310;2023-03-01T06:42:07;59.67;;;31.02;;
46084;SDS011;31823;47.032;8.310;2023-03-01T06:44:35;57.78;;;30.55;;
46084;SDS011;31823;47.032;8.310;2023-03-01T06:47:00;57.83;;;30.65;;
46084;SDS011;31823;47.032;8.310;2023-03-01T06:49:26;53.60;;;30.65;;
46084;SDS011;31823;47.032;8.310;2023-03-01T06:51:52;62.40;;;32.25;;
46084;SDS011;31823;47.032;8.310;2023-03-01T06:54:17;57.88;;;32.55;;
46084;SDS011;31823;47.032;8.310;2023-03-01T06:56:46;61.03;;;31.98;;
46084;SDS011;31823;47.032;8.310;2023-03-01T06:59:11;56.72;;;30.58;;
46084;SDS011;31823;47.032;8.310;2023-03-01T07:01:37;57.22;;;30.52;;
46084;SDS011;31823;47.032;8.310;2023-03-01T07:04:03;59.97;;;32.10;;
46084;SDS011;31823;47.032;8.310;2023-03-01T07:06:29;59.30;;;30.92;;
46084;SDS011;31823;47.032;8.310;2023-03-01T07:08:55;58.00;;;31.48;;
46084;SDS011;31823;47.032;8.310;2023-03-01T07:11:21;56.65;;;31.17;;
46084;SDS011;31823;47.032;8.310;2023-03-01T07:13:46;56.55;;;31.05;;
46084;SDS011;31823;47.032;8.310;2023-03-01T07:16:12;58.13;;;31.25;;
46084;SDS011;31823;47.032;8.310;2023-03-01T07:18:39;52.38;;;29.73;;
46084;SDS011;31823;47.032;8.310;2023-03-01T07:21:07;61.03;;;32.95;;
46084;SDS011;31823;47.032;8.310;2023-03-01T07:23:35;60.72;;;32.55;;
46084;SDS011;31823;47.032;8.310;2023-03-01T07:26:01;57.58;;;30.58;;
46084;SDS011;31823;47.032;8.310;2023-03-01T07:28:27;57.97;;;31.38;;
46084;SDS011;31823;47.032;8.310;2023-03-01T07:30:53;56.17;;;30.67;;
46084;SDS011;31823;47.032;8.310;2023-03-01T07:33:20;57.03;;;30.88;;
46084;SDS011;31823;47.032;8.310;2023-03-01T07:35:46;56.15;;;30.10;;
46084;SDS011;31823;47.032;8.310;2023-03-01T07:38:11;59.55;;;30.83;;
46084;SDS011;31823;47.032;8.310;2023-03-01T07:40:37;61.17;;;31.00;;
46084;SDS011;31823;47.032;8.310;2023-03-01T07:43:02;56.25;;;30.95;;
46084;SDS011;31823;47.032;8.310;2023-03-01T07:45:28;58.70;;;30.15;;
46084;SDS011;31823;47.032;8.310;2023-03-01T07:47:54;58.30;;;29.60;;
46084;SDS011;31823;47.032;8.310;2023-03-01T07:50:20;56.58;;;29.80;;
46084;SDS011;31823;47.032;8.310;2023-03-01T07:52:47;60.13;;;31.10;;
46084;SDS011;31823;47.032;8.310;2023-03-01T07:55:14;57.88;;;30.95;;
46084;SDS011;31823;47.032;8.310;2023-03-01T07:57:41;53.13;;;29.83;;
46084;SDS011;31823;47.032;8.310;2023-03-01T08:00:07;54.85;;;30.80;;
46084;SDS011;31823;47.032;8.310;2023-03-01T08:02:34;56.45;;;29.20;;
46084;SDS011;31823;47.032;8.310;2023-03-01T08:05:00;59.47;;;30.80;;
46084;SDS011;31823;47.032;8.310;2023-03-01T08:07:25;57.08;;;30.58;;
46084;SDS011;31823;47.032;8.310;2023-03-01T08:09:51;57.88;;;31.20;;
46084;SDS011;31823;47.032;8.310;2023-03-01T08:12:17;56.35;;;30.17;;
46084;SDS011;31823;47.032;8.310;2023-03-01T08:14:42;54.13;;;30.42;;
46084;SDS011;31823;47.032;8.310;2023-03-01T08:17:08;57.70;;;30.15;;
46084;SDS011;31823;47.032;8.310;2023-03-01T08:19:34;58.97;;;31.00;;
46084;SDS011;31823;47.032;8.310;2023-03-01T08:22:00;58.60;;;30.70;;
46084;SDS011;31823;47.032;8.310;2023-03-01T08:24:27;56.80;;;30.67;;
46084;SDS011;31823;47.032;8.310;2023-03-01T08:26:53;54.53;;;29.02;;
46084;SDS011;31823;47.032;8.310;2023-03-01T08:29:19;59.13;;;30.45;;
46084;SDS011;31823;47.032;8.310;2023-03-01T08:31:44;53.75;;;28.30;;
46084;SDS011;31823;47.032;8.310;2023-03-01T08:34:11;53.00;;;27.73;;
46084;SDS011;31823;47.032;8.310;2023-03-01T08:36:40;55.33;;;28.38;;
46084;SDS011;31823;47.032;8.310;2023-03-01T08:39:08;53.67;;;29.17;;
46084;SDS011;31823;47.032;8.310;2023-03-01T08:41:35;58.97;;;29.58;;
46084;SDS011;31823;47.032;8.310;2023-03-01T08:44:01;54.53;;;29.20;;
46084;SDS011;31823;47.032;8.310;2023-03-01T08:46:33;55.65;;;28.33;;
46084;SDS011;31823;47.032;8.310;2023-03-01T08:49:03;55.75;;;29.35;;
46084;SDS011;31823;47.032;8.310;2023-03-01T08:51:30;55.13;;;28.00;;
46084;SDS011;31823;47.032;8.310;2023-03-01T08:54:01;54.47;;;29.67;;
46084;SDS011;31823;47.032;8.310;2023-03-01T08:56:31;53.55;;;27.83;;
46084;SDS011;31823;47.032;8.310;2023-03-01T08:58:57;57.40;;;28.27;;
46084;SDS011;31823;47.032;8.310;2023-03-01T09:01:23;52.97;;;28.83;;
46084;SDS011;31823;47.032;8.310;2023-03-01T09:03:49;50.80;;;27.85;;
46084;SDS011;31823;47.032;8.310;2023-03-01T09:06:14;52.10;;;28.35;;
46084;SDS011;31823;47.032;8.310;2023-03-01T09:08:45;55.25;;;28.33;;
46084;SDS011;31823;47.032;8.310;2023-03-01T09:11:13;51.80;;;27.35;;
46084;SDS011;31823;47.032;8.310;2023-03-01T09:13:41;52.38;;;28.38;;
46084;SDS011;31823;47.032;8.310;2023-03-01T09:16:08;55.83;;;29.17;;
46084;SDS011;31823;47.032;8.310;2023-03-01T09:18:34;56.70;;;27.25;;
46084;SDS011;31823;47.032;8.310;2023-03-01T09:21:03;51.72;;;27.10;;
46084;SDS011;31823;47.032;8.310;2023-03-01T09:23:32;56.88;;;28.15;;
46084;SDS011;31823;47.032;8.310;2023-03-01T09:25:59;52.67;;;27.70;;
46084;SDS011;31823;47.032;8.310;2023-03-01T09:28:25;55.03;;;26.90;;
46084;SDS011;31823;47.032;8.310;2023-03-01T09:30:51;52.30;;;27.92;;
46084;SDS011;31823;47.032;8.310;2023-03-01T09:33:16;51.72;;;27.92;;
46084;SDS011;31823;47.032;8.310;2023-03-01T09:35:42;59.92;;;29.17;;
46084;SDS011;31823;47.032;8.310;2023-03-01T09:38:12;54.83;;;27.65;;
46084;SDS011;31823;47.032;8.310;2023-03-01T09:40:41;55.65;;;27.98;;
46084;SDS011;31823;47.032;8.310;2023-03-01T09:45:50;48.50;;;26.90;;
46084;SDS011;31823;47.032;8.310;2023-03-01T09:48:20;51.75;;;26.92;;
46084;SDS011;31823;47.032;8.310;2023-03-01T09:50:49;47.55;;;25.98;;
46084;SDS011;31823;47.032;8.310;2023-03-01T09:53:20;55.67;;;27.70;;
46084;SDS011;31823;47.032;8.310;2023-03-01T09:55:55;50.80;;;26.60;;
46084;SDS011;31823;47.032;8.310;2023-03-01T09:58:45;50.08;;;26.10;;
46084;SDS011;31823;47.032;8.310;2023-03-01T10:06:43;48.63;;;25.35;;
46084;SDS011;31823;47.032;8.310;2023-03-01T10:09:14;47.28;;;25.42;;
46084;SDS011;31823;47.032;8.310;2023-03-01T10:11:43;50.25;;;26.58;;
46084;SDS011;31823;47.032;8.310;2023-03-01T10:14:30;47.58;;;27.05;;
46084;SDS011;31823;47.032;8.310;2023-03-01T10:17:37;49.80;;;27.27;;
46084;SDS011;31823;47.032;8.310;2023-03-01T10:20:10;49.42;;;26.38;;
46084;SDS011;31823;47.032;8.310;2023-03-01T10:22:49;51.00;;;26.63;;
46084;SDS011;31823;47.032;8.310;2023-03-01T10:28:10;48.75;;;25.77;;
46084;SDS011;31823;47.032;8.310;2023-03-01T10:30:42;48.35;;;26.45;;
46084;SDS011;31823;47.032;8.310;2023-03-01T10:33:22;50.20;;;26.83;;
46084;SDS011;31823;47.032;8.310;2023-03-01T10:35:50;50.38;;;25.88;;
46084;SDS011;31823;47.032;8.310;2023-03-01T10:38:16;45.63;;;26.10;;
46084;SDS011;31823;47.032;8.310;2023-03-01T10:43:49;49.42;;;26.60;;
46084;SDS011;31823;47.032;8.310;2023-03-01T10:46:23;50.43;;;26.30;;
46084;SDS011;31823;47.032;8.310;2023-03-01T10:51:40;48.20;;;25.38;;
46084;SDS011;31823;47.032;8.310;2023-03-01T10:54:17;48.10;;;25.50;;
46084;SDS011;31823;47.032;8.310;2023-03-01T10:56:50;44.17;;;25.13;;
46084;SDS011;31823;47.032;8.310;2023-03-01T10:59:28;53.00;;;26.92;;
46084;SDS011;31823;47.032;8.310;2023-03-01T11:07:47;49.60;;;27.05;;
46084;SDS011;31823;47.032;8.310;2023-03-01T11:10:17;49.80;;;26.45;;
46084;SDS011;31823;47.032;8.310;2023-03-01T11:12:44;48.30;;;24.95;;
46084;SDS011;31823;47.032;8.310;2023-03-01T11:15:19;50.05;;;25.85;;
46084;SDS011;31823;47.032;8.310;2023-03-01T11:17:48;46.10;;;25.63;;
46084;SDS011;31823;47.032;8.310;2023-03-01T11:20:26;47.35;;;25.52;;
46084;SDS011;31823;47.032;8.310;2023-03-01T11:22:58;49.67;;;25.92;;
46084;SDS011;31823;47.032;8.310;2023-03-01T11:25:30;50.80;;;27.50;;
46084;SDS011;31823;47.032;8.310;2023-03-01T11:27:59;51.58;;;26.40;;
46084;SDS011;31823;47.032;8.310;2023-03-01T11:30:38;47.97;;;24.63;;
46084;SDS011;31823;47.032;8.310;2023-03-01T11:33:13;48.20;;;26.15;;
46084;SDS011;31823;47.032;8.310;2023-03-01T11:35:46;46.35;;;24.85;;
46084;SDS011;31823;47.032;8.310;2023-03-01T11:38:23;43.25;;;24.02;;
46084;SDS011;31823;47.032;8.310;2023-03-01T12:16:23;49.05;;;24.48;;
46084;SDS011;31823;47.032;8.310;2023-03-01T12:19:19;43.10;;;24.63;;
46084;SDS011;31823;47.032;8.310;2023-03-01T12:25:01;45.45;;;24.42;;
46084;SDS011;31823;47.032;8.310;2023-03-01T12:49:38;46.45;;;24.83;;
46084;SDS011;31823;47.032;8.310;2023-03-01T12:54:38;46.17;;;24.08;;
46084;SDS011;31823;47.032;8.310;2023-03-01T12:57:26;45.22;;;23.92;;
46084;SDS011;31823;47.032;8.310;2023-03-01T13:03:00;44.22;;;23.48;;
46084;SDS011;31823;47.032;8.310;2023-03-01T13:10:53;39.83;;;22.02;;
46084;SDS011;31823;47.032;8.310;2023-03-01T13:13:40;39.75;;;22.55;;
46084;SDS011;31823;47.032;8.310;2023-03-01T13:21:37;43.03;;;22.15;;
46084;SDS011;31823;47.032;8.310;2023-03-01T13:24:03;40.40;;;22.92;;
46084;SDS011;31823;47.032;8.310;2023-03-01T13:26:29;44.08;;;24.25;;
46084;SDS011;31823;47.032;8.310;2023-03-01T13:28:55;40.72;;;24.30;;
46084;SDS011;31823;47.032;8.310;2023-03-01T13:33:53;43.25;;;23.83;;
46084;SDS011;31823;47.032;8.310;2023-03-01T13:46:47;45.38;;;23.05;;
46084;SDS011;31823;47.032;8.310;2023-03-01T13:49:15;40.17;;;22.58;;
46084;SDS011;31823;47.032;8.310;2023-03-01T13:51:45;50.28;;;23.42;;
46084;SDS011;31823;47.032;8.310;2023-03-01T13:54:12;40.75;;;23.15;;
46084;SDS011;31823;47.032;8.310;2023-03-01T13:56:40;42.42;;;23.23;;
46084;SDS011;31823;47.032;8.310;2023-03-01T13:59:13;41.83;;;23.30;;
46084;SDS011;31823;47.032;8.310;2023-03-01T14:01:44;42.30;;;22.83;;
46084;SDS011;31823;47.032;8.310;2023-03-01T14:06:51;40.30;;;23.65;;
46084;SDS011;31823;47.032;8.310;2023-03-01T14:09:26;40.50;;;23.45;;
46084;SDS011;31823;47.032;8.310;2023-03-01T14:14:52;42.72;;;23.33;;
46084;SDS011;31823;47.032;8.310;2023-03-01T14:17:38;42.50;;;23.63;;
46084;SDS011;31823;47.032;8.310;2023-03-01T14:20:25;45.95;;;22.88;;
46084;SDS011;31823;47.032;8.310;2023-03-01T14:22:54;45.97;;;21.80;;
46084;SDS011;31823;47.032;8.310;2023-03-01T14:25:32;42.40;;;22.83;;
46084;SDS011;31823;47.032;8.310;2023-03-01T14:28:18;43.45;;;22.80;;
46084;SDS011;31823;47.032;8.310;2023-03-01T14:30:56;43.20;;;23.88;;
46084;SDS011;31823;47.032;8.310;2023-03-01T14:33:24;41.00;;;23.60;;
46084;SDS011;31823;47.032;8.310;2023-03-01T14:41:08;41.47;;;22.55;;
46084;SDS011;31823;47.032;8.310;2023-03-01T14:43:58;42.83;;;22.65;;
46084;SDS011;31823;47.032;8.310;2023-03-01T14:46:40;42.15;;;24.02;;
46084;SDS011;31823;47.032;8.310;2023-03-01T14:51:39;45.90;;;24.08;;
46084;SDS011;31823;47.032;8.310;2023-03-01T14:54:18;41.78;;;23.08;;
46084;SDS011;31823;47.032;8.310;2023-03-01T14:56:45;42.67;;;22.65;;
46084;SDS011;31823;47.032;8.310;2023-03-01T14:59:11;40.83;;;23.73;;
46084;SDS011;31823;47.032;8.310;2023-03-01T15:01:37;42.05;;;23.60;;
46084;SDS011;31823;47.032;8.310;2023-03-01T15:04:06;43.78;;;25.20;;
46084;SDS011;31823;47.032;8.310;2023-03-01T15:06:34;40.80;;;23.50;;
46084;SDS011;31823;47.032;8.310;2023-03-01T15:08:59;42.53;;;23.45;;
46084;SDS011;31823;47.032;8.310;2023-03-01T15:13:58;43.05;;;24.73;;
46084;SDS011;31823;47.032;8.310;2023-03-01T15:16:25;42.75;;;24.85;;
46084;SDS011;31823;47.032;8.310;2023-03-01T15:19:15;43.63;;;24.25;;
46084;SDS011;31823;47.032;8.310;2023-03-01T15:21:48;46.70;;;25.33;;
46084;SDS011;31823;47.032;8.310;2023-03-01T15:24:20;42.80;;;24.08;;
46084;SDS011;31823;47.032;8.310;2023-03-01T15:26:53;46.20;;;24.25;;
46084;SDS011;31823;47.032;8.310;2023-03-01T15:29:27;41.63;;;23.05;;
46084;SDS011;31823;47.032;8.310;2023-03-01T15:31:56;42.70;;;22.17;;
46084;SDS011;31823;47.032;8.310;2023-03-01T15:34:35;42.35;;;23.50;;
46084;SDS011;31823;47.032;8.310;2023-03-01T15:37:03;39.80;;;23.45;;
46084;SDS011;31823;47.032;8.310;2023-03-01T15:42:36;47.33;;;24.88;;
46084;SDS011;31823;47.032;8.310;2023-03-01T15:45:09;42.45;;;23.50;;
46084;SDS011;31823;47.032;8.310;2023-03-01T15:47:39;45.63;;;25.38;;
46084;SDS011;31823;47.032;8.310;2023-03-01T15:50:11;43.30;;;23.75;;
46084;SDS011;31823;47.032;8.310;2023-03-01T15:52:42;44.20;;;25.00;;
46084;SDS011;31823;47.032;8.310;2023-03-01T15:55:19;49.30;;;26.65;;
46084;SDS011;31823;47.032;8.310;2023-03-01T15:57:47;45.35;;;25.30;;
46084;SDS011;31823;47.032;8.310;2023-03-01T16:00:14;41.33;;;24.23;;
46084;SDS011;31823;47.032;8.310;2023-03-01T16:02:44;47.33;;;24.77;;
46084;SDS011;31823;47.032;8.310;2023-03-01T16:05:21;44.03;;;25.00;;
46084;SDS011;31823;47.032;8.310;2023-03-01T16:07:48;45.47;;;25.65;;
46084;SDS011;31823;47.032;8.310;2023-03-01T16:10:16;48.03;;;25.25;;
46084;SDS011;31823;47.032;8.310;2023-03-01T16:12:42;44.08;;;24.65;;
46084;SDS011;31823;47.032;8.310;2023-03-01T16:15:12;43.95;;;25.38;;
46084;SDS011;31823;47.032;8.310;2023-03-01T16:17:41;43.47;;;24.40;;
46084;SDS011;31823;47.032;8.310;2023-03-01T16:20:06;45.85;;;23.88;;
46084;SDS011;31823;47.032;8.310;2023-03-01T16:22:33;44.10;;;23.48;;
46084;SDS011;31823;47.032;8.310;2023-03-01T16:24:58;46.85;;;25.02;;
46084;SDS011;31823;47.032;8.310;2023-03-01T16:27:24;44.70;;;24.92;;
46084;SDS011;31823;47.032;8.310;2023-03-01T16:29:49;42.65;;;24.55;;
46084;SDS011;31823;47.032;8.310;2023-03-01T16:32:15;45.55;;;25.35;;
46084;SDS011;31823;47.032;8.310;2023-03-01T16:34:40;43.30;;;24.75;;
46084;SDS011;31823;47.032;8.310;2023-03-01T16:37:06;44.35;;;24.80;;
46084;SDS011;31823;47.032;8.310;2023-03-01T16:39:31;45.97;;;23.75;;
46084;SDS011;31823;47.032;8.310;2023-03-01T16:41:58;43.25;;;23.60;;
46084;SDS011;31823;47.032;8.310;2023-03-01T16:44:25;46.40;;;24.17;;
46084;SDS011;31823;47.032;8.310;2023-03-01T16:46:51;43.42;;;25.30;;
46084;SDS011;31823;47.032;8.310;2023-03-01T16:49:16;45.45;;;24.95;;
46084;SDS011;31823;47.032;8.310;2023-03-01T16:51:42;44.83;;;25.55;;
46084;SDS011;31823;47.032;8.310;2023-03-01T16:54:09;44.97;;;24.67;;
46084;SDS011;31823;47.032;8.310;2023-03-01T16:56:35;44.60;;;25.38;;
46084;SDS011;31823;47.032;8.310;2023-03-01T16:59:03;44.13;;;25.23;;